메인 페이지
METAR-TAF:

METAR-TAF

공항 :

퀴라소, 네덜란드령 안틸레스

위도: 12-12N, 경도: 068-58W, 고도: 9m

현재 날씨관측

예보는 44분 전, 12:00시(UTC)에 발표되었습니다.
10kt
온도 28°C
습도 74%
기압 1014 hPa
시정 10km 이상

METAR: TNCC 221200Z AUTO 10010KT 9999 NCD 28/23 Q1014 NOSIG

시각: 08:44 (12:44 UTC)

예보

예보는 3 시간 14분 전, 09:30시(UTC)에 발표되었습니다.
예보 대상 시간: 22일 12시부터 23일 12시까지 (UTC)
동남동13kt
시정 10km 이상
고도 2200ft 상공 구름 보통
전환 중
23일 02시부터 23일 04시까지 (UTC)
14kt, 순간 최대 풍속 24kt

TAF: TNCC 220930Z 2212/2312 11013KT 9999 SCT022 BECMG 2302/2304 10014G24KT

4,000개 이상의 공항 관측 자료 및 예보 (METAR 및 TAF 보고).

지도상에서 검색 가능한 기상관측소가 노란 점과 빨간 점으로 표시되어 있습니다.

기상관측소 명을 보려면 표시 위로 마우스를 이동하세요.

날씨 관측과 예보를 보려면 클릭하세요.

지도 변경 : 확대하려면 엑스 표시가 있는 녹색 버튼, 축소하려면 빼기 표시가 있는 녹색 버튼, 다음 페이지의 지도를 보려면 녹색 화살표를 클릭하세요.


METAR-TAF: